Terminal Aerodrome Forecast
Issued by NWS

Home | Current Version | Previous Version | Text Only | Print | Product List | Glossary On
Versions: 1 2 3 4 5 6 7 8 9 10 11 12 13 14 15 16 17 18 19
000
FTUS46 KLOX 271100 RRA
TAFWJF
TAF
KWJF 271147Z 2712/2812 06005KT P6SM SCT015 OVC025
     FM271500 VRB05KT P6SM BKN020 BKN050
     FM272000 27008KT P6SM SCT050 SCT200
     FM280300 VRB05KT P6SM SCT200=

USA.gov is the U.S. government's official web portal to all federal, state and local government web resources and services.